Time;durP1;ratioP1;P1;durP2;ratioP2;P2;SDS_P1;SDS_P2;PMS_P1;PMS_P2;Temp;Humidity;BMP_temperature;BMP_pressure;BME280_temperature;BME280_humidity;BME280_pressure;Samples;Min_cycle;Max_cycle;Signal;HPM_P1;HPM_P2
2023/04/01 00:00:35;;;;;;;1.92;0.80;;;;;;;;;;4998683;28;92276;-78
2023/04/01 00:03:02;;;;;;;4.72;1.10;;;;;;;;;;4983417;28;92521;-77
2023/04/01 00:05:28;;;;;;;2.85;1.08;;;;;;;;;;4980877;28;93450;-78
2023/04/01 00:07:55;;;;;;;7.60;3.60;;;;;;;;;;4980458;28;94883;-79
2023/04/01 00:10:22;;;;;;;8.52;3.03;;;;;;;;;;5014824;28;94522;-79
2023/04/01 00:12:48;;;;;;;9.32;2.88;;;;;;;;;;4981278;28;92178;-80
2023/04/01 00:15:15;;;;;;;7.43;3.45;;;;;;;;;;4984250;28;93071;-79
2023/04/01 00:17:42;;;;;;;9.60;3.63;;;;;;;;;;4983344;28;92275;-79
2023/04/01 00:20:09;;;;;;;8.73;2.42;;;;;;;;;;4973973;28;94939;-79
2023/04/01 00:22:36;;;;;;;11.02;3.40;;;;;;;;;;4979182;28;93899;-80
2023/04/01 00:25:03;;;;;;;10.48;4.15;;;;;;;;;;4983699;28;91722;-80
2023/04/01 00:27:29;;;;;;;10.38;4.13;;;;;;;;;;4981129;28;96050;-80
2023/04/01 00:29:56;;;;;;;12.88;4.63;;;;;;;;;;4981465;28;93992;-79
2023/04/01 00:32:22;;;;;;;16.25;5.10;;;;;;;;;;4999703;28;94623;-80
2023/04/01 00:34:52;;;;;;;13.35;5.35;;;;;;;;;;4981785;28;94943;-79
2023/04/01 00:37:20;;;;;;;11.45;4.70;;;;;;;;;;4983246;28;95417;-79
2023/04/01 00:39:47;;;;;;;12.35;4.32;;;;;;;;;;4980913;28;94117;-79
2023/04/01 00:42:14;;;;;;;11.05;4.22;;;;;;;;;;4982114;28;92281;-79
2023/04/01 00:44:40;;;;;;;14.70;4.97;;;;;;;;;;4981038;28;92219;-79
2023/04/01 00:47:07;;;;;;;16.33;4.93;;;;;;;;;;4981157;28;93308;-78
2023/04/01 00:49:39;;;;;;;12.80;4.60;;;;;;;;;;4981406;28;93726;-79
2023/04/01 00:52:07;;;;;;;14.80;5.15;;;;;;;;;;4980933;28;92373;-79
2023/04/01 00:54:35;;;;;;;12.05;3.88;;;;;;;;;;4982414;28;93147;-79
2023/04/01 00:57:05;;;;;;;12.85;4.63;;;;;;;;;;4978209;28;97580;-79
2023/04/01 00:59:38;;;;;;;14.75;4.95;;;;;;;;;;4985377;28;92247;-80
2023/04/01 01:02:06;;;;;;;14.95;6.05;;;;;;;;;;5010718;28;93022;-78
2023/04/01 01:04:34;;;;;;;14.68;6.03;;;;;;;;;;4982405;28;92105;-78
2023/04/01 01:07:05;;;;;;;16.27;6.22;;;;;;;;;;4980290;28;95199;-79
2023/04/01 01:09:42;;;;;;;19.98;7.55;;;;;;;;;;4975997;28;99877;-78
2023/04/01 01:12:14;;;;;;;13.90;5.70;;;;;;;;;;4961484;28;93484;-78
2023/04/01 01:14:53;;;;;;;16.30;5.97;;;;;;;;;;4978004;28;92412;-78
2023/04/01 01:17:25;;;;;;;16.35;6.47;;;;;;;;;;4972655;28;94630;-78
2023/04/01 01:19:55;;;;;;;14.02;5.82;;;;;;;;;;4962518;28;92866;-79
2023/04/01 01:22:40;;;;;;;15.43;6.15;;;;;;;;;;4963220;28;94842;-78
2023/04/01 01:25:09;;;;;;;17.52;6.03;;;;;;;;;;4976965;28;92585;-78
2023/04/01 01:27:37;;;;;;;14.25;6.72;;;;;;;;;;4960270;28;92999;-78
2023/04/01 01:30:23;;;;;;;12.90;4.88;;;;;;;;;;4961754;28;94275;-78
2023/04/01 01:32:55;;;;;;;15.13;5.68;;;;;;;;;;4955057;28;92101;-78
2023/04/01 01:35:32;;;;;;;12.48;4.53;;;;;;;;;;4959996;28;92604;-78
2023/04/01 01:38:02;;;;;;;12.85;4.47;;;;;;;;;;4953306;28;95488;-78
2023/04/01 01:40:30;;;;;;;11.30;4.40;;;;;;;;;;4971212;28;91433;-78
2023/04/01 01:42:59;;;;;;;14.68;6.00;;;;;;;;;;4963421;28;94300;-79
2023/04/01 01:45:27;;;;;;;9.43;3.83;;;;;;;;;;4982248;28;92388;-78
2023/04/01 01:47:54;;;;;;;12.27;4.90;;;;;;;;;;4960693;28;94468;-79
2023/04/01 01:50:21;;;;;;;11.77;3.83;;;;;;;;;;4992480;28;95004;-78
2023/04/01 01:52:48;;;;;;;10.05;3.65;;;;;;;;;;4959943;28;92453;-79
2023/04/01 01:55:31;;;;;;;9.55;3.42;;;;;;;;;;4959830;28;93997;-77
2023/04/01 01:57:59;;;;;;;9.75;3.50;;;;;;;;;;4966784;28;94986;-78
2023/04/01 02:00:27;;;;;;;9.45;3.83;;;;;;;;;;4959828;28;92309;-78
2023/04/01 02:02:54;;;;;;;8.63;3.08;;;;;;;;;;4960315;28;94129;-78
2023/04/01 02:05:23;;;;;;;8.20;3.65;;;;;;;;;;4961002;28;94981;-78
2023/04/01 02:07:55;;;;;;;9.60;3.30;;;;;;;;;;4960093;28;94116;-79
2023/04/01 02:10:24;;;;;;;8.73;3.15;;;;;;;;;;4992180;28;95339;-78
2023/04/01 02:12:54;;;;;;;8.02;3.30;;;;;;;;;;4954795;28;94722;-79
2023/04/01 02:15:21;;;;;;;8.77;3.55;;;;;;;;;;4975435;28;94901;-78
2023/04/01 02:17:48;;;;;;;;;;;;;;;;;;4961587;28;93002;-78
2023/04/01 02:20:16;;;;;;;8.13;2.90;;;;;;;;;;4961760;28;92232;-78
2023/04/01 02:22:46;;;;;;;9.77;3.72;;;;;;;;;;4944094;28;94548;-79
2023/04/01 02:25:15;;;;;;;10.00;3.80;;;;;;;;;;4993288;28;95169;-78
2023/04/01 02:27:43;;;;;;;9.57;3.92;;;;;;;;;;4981360;28;92409;-79
2023/04/01 02:30:10;;;;;;;8.93;3.50;;;;;;;;;;4971288;28;93882;-78
2023/04/01 02:32:38;;;;;;;9.90;3.90;;;;;;;;;;4972231;28;92095;-79
2023/04/01 02:35:10;;;;;;;8.95;3.40;;;;;;;;;;4979078;28;94964;-77
2023/04/01 02:37:37;;;;;;;9.73;3.53;;;;;;;;;;4977202;28;94909;-77
2023/04/01 02:40:07;;;;;;;8.32;3.08;;;;;;;;;;4976928;28;92143;-79
2023/04/01 02:42:34;;;;;;;9.68;3.08;;;;;;;;;;4987871;28;94693;-78
2023/04/01 02:45:01;;;;;;;7.93;3.50;;;;;;;;;;4979591;28;92813;-77
2023/04/01 02:47:27;;;;;;;8.00;2.78;;;;;;;;;;4978222;28;92183;-77
2023/04/01 02:49:57;;;;;;;8.13;3.00;;;;;;;;;;5015771;28;95480;-78
2023/04/01 02:52:24;;;;;;;6.78;2.97;;;;;;;;;;4980324;28;92070;-79
2023/04/01 02:54:51;;;;;;;7.75;2.33;;;;;;;;;;4979664;28;94741;-79
2023/04/01 02:57:17;;;;;;;8.55;3.17;;;;;;;;;;4977496;28;95468;-78
2023/04/01 02:59:44;;;;;;;8.30;2.95;;;;;;;;;;4979666;28;92757;-78
2023/04/01 03:02:10;;;;;;;8.13;3.00;;;;;;;;;;4977318;28;94933;-78
2023/04/01 03:04:37;;;;;;;7.97;3.80;;;;;;;;;;4978982;28;95388;-78
2023/04/01 03:07:04;;;;;;;8.25;2.85;;;;;;;;;;4979698;28;92209;-77
2023/04/01 03:09:30;;;;;;;6.05;2.25;;;;;;;;;;4975725;28;95122;-78
2023/04/01 03:11:57;;;;;;;7.20;2.33;;;;;;;;;;4977197;28;94370;-78
2023/04/01 03:14:23;;;;;;;6.70;2.38;;;;;;;;;;4996202;28;95200;-78
2023/04/01 03:16:50;;;;;;;5.35;2.10;;;;;;;;;;4981437;28;92671;-79
2023/04/01 03:19:16;;;;;;;6.28;2.40;;;;;;;;;;4981881;28;91532;-79
2023/04/01 03:21:43;;;;;;;6.20;2.47;;;;;;;;;;4981919;28;94234;-79
2023/04/01 03:24:09;;;;;;;4.50;1.77;;;;;;;;;;4981540;28;92826;-80
2023/04/01 03:26:36;;;;;;;7.50;2.38;;;;;;;;;;4997148;28;94795;-79
2023/04/01 03:29:02;;;;;;;7.03;2.40;;;;;;;;;;4982064;28;97420;-79
2023/04/01 03:31:29;;;;;;;6.82;2.00;;;;;;;;;;4991210;28;99007;-79
2023/04/01 03:33:56;;;;;;;6.32;2.53;;;;;;;;;;4993491;28;92424;-78
2023/04/01 03:36:22;;;;;;;5.57;1.98;;;;;;;;;;4962881;28;92761;-77
2023/04/01 03:38:49;;;;;;;5.63;2.03;;;;;;;;;;4995155;28;92640;-78
2023/04/01 03:41:22;;;;;;;4.68;2.00;;;;;;;;;;4977312;28;94751;-78
2023/04/01 03:43:49;;;;;;;4.57;1.80;;;;;;;;;;4962819;28;92163;-78
2023/04/01 03:46:19;;;;;;;3.97;1.60;;;;;;;;;;4961868;28;92127;-79
2023/04/01 03:48:46;;;;;;;5.65;2.08;;;;;;;;;;4978590;28;94623;-79
2023/04/01 03:51:13;;;;;;;5.75;1.80;;;;;;;;;;4958418;28;98147;-78
2023/04/01 03:53:40;;;;;;;4.57;1.80;;;;;;;;;;4964741;28;92461;-78
2023/04/01 03:56:06;;;;;;;4.28;1.65;;;;;;;;;;4961335;28;93037;-77
2023/04/01 03:58:35;;;;;;;7.78;1.90;;;;;;;;;;4994335;28;92224;-77
2023/04/01 04:01:02;;;;;;;6.57;1.90;;;;;;;;;;4961496;28;92508;-77
2023/04/01 04:03:31;;;;;;;2.58;1.30;;;;;;;;;;4977596;28;99386;-78
2023/04/01 04:05:57;;;;;;;5.07;1.80;;;;;;;;;;4960796;28;92314;-79
2023/04/01 04:08:24;;;;;;;4.47;1.73;;;;;;;;;;4962936;28;92411;-78
2023/04/01 04:10:54;;;;;;;4.05;1.80;;;;;;;;;;4960850;28;95269;-79
2023/04/01 04:13:21;;;;;;;4.57;1.60;;;;;;;;;;4960283;28;92393;-79
2023/04/01 04:15:55;;;;;;;4.95;1.58;;;;;;;;;;4934198;28;94503;-79
2023/04/01 04:18:21;;;;;;;4.00;1.65;;;;;;;;;;4961021;28;92270;-79
2023/04/01 04:20:50;;;;;;;2.78;1.30;;;;;;;;;;4962193;28;92282;-78
2023/04/01 04:23:18;;;;;;;3.85;1.60;;;;;;;;;;4959897;28;93064;-78
2023/04/01 04:25:58;;;;;;;5.25;1.45;;;;;;;;;;4960732;28;92472;-77
2023/04/01 04:28:26;;;;;;;6.15;1.98;;;;;;;;;;4959857;28;93574;-78
2023/04/01 04:30:55;;;;;;;2.67;1.20;;;;;;;;;;4960636;28;94917;-78
2023/04/01 04:33:22;;;;;;;3.80;1.30;;;;;;;;;;4952002;28;91339;-78
2023/04/01 04:35:49;;;;;;;4.68;1.50;;;;;;;;;;4973620;28;94547;-79
2023/04/01 04:38:15;;;;;;;5.07;1.65;;;;;;;;;;4964204;28;93086;-79
2023/04/01 04:40:42;;;;;;;4.55;1.60;;;;;;;;;;4959077;28;94917;-78
2023/04/01 04:43:13;;;;;;;4.30;1.55;;;;;;;;;;4959971;28;94794;-79
2023/04/01 04:45:40;;;;;;;4.88;1.50;;;;;;;;;;4961059;28;92425;-78
2023/04/01 04:48:07;;;;;;;;;;;;;;;;;;4960887;28;92546;-78
2023/04/01 04:50:34;;;;;;;2.97;1.30;;;;;;;;;;4978144;28;94993;-79
2023/04/01 04:53:01;;;;;;;3.47;1.50;;;;;;;;;;4961028;28;92478;-79
2023/04/01 04:55:29;;;;;;;4.13;1.55;;;;;;;;;;4960202;28;95892;-80
2023/04/01 04:58:16;;;;;;;3.38;1.30;;;;;;;;;;4961072;28;94218;-77
2023/04/01 05:00:44;;;;;;;4.13;1.52;;;;;;;;;;4996447;28;92328;-78
2023/04/01 05:03:18;;;;;;;3.83;1.40;;;;;;;;;;4959304;28;94977;-78
2023/04/01 05:05:52;;;;;;;5.53;1.67;;;;;;;;;;4974577;28;94643;-78
2023/04/01 05:08:18;;;;;;;;;;;;;;;;;;4960893;28;96984;-79
2023/04/01 05:10:45;;;;;;;3.92;1.20;;;;;;;;;;4942328;28;95326;-78
2023/04/01 05:13:12;;;;;;;2.55;1.10;;;;;;;;;;4953219;28;92410;-78
2023/04/01 05:15:39;;;;;;;3.42;1.20;;;;;;;;;;4955277;28;95119;-77
2023/04/01 05:18:06;;;;;;;2.38;1.20;;;;;;;;;;4960081;28;94330;-79
2023/04/01 05:20:33;;;;;;;3.67;1.38;;;;;;;;;;4959424;28;93948;-78
2023/04/01 05:23:00;;;;;;;3.35;1.20;;;;;;;;;;4996296;28;94574;-79
2023/04/01 05:25:26;;;;;;;2.60;1.30;;;;;;;;;;4960580;28;92404;-79
2023/04/01 05:27:53;;;;;;;2.25;1.00;;;;;;;;;;4976067;28;93664;-79
2023/04/01 05:30:20;;;;;;;3.03;1.42;;;;;;;;;;4958731;28;97805;-79
2023/04/01 05:32:59;;;;;;;;;;;;;;;;;;4960331;28;92477;-78
2023/04/01 05:35:26;;;;;;;2.97;1.30;;;;;;;;;;4960730;28;93343;-79
2023/04/01 05:37:53;;;;;;;3.78;1.48;;;;;;;;;;4959309;28;94154;-79
2023/04/01 05:40:20;;;;;;;2.47;1.20;;;;;;;;;;4959319;28;92533;-78
2023/04/01 05:42:46;;;;;;;3.53;1.50;;;;;;;;;;4963734;28;92830;-79
2023/04/01 05:45:15;;;;;;;5.68;2.00;;;;;;;;;;4969338;28;92091;-79
2023/04/01 05:47:54;;;;;;;5.13;2.08;;;;;;;;;;4959644;28;92202;-79
2023/04/01 05:50:21;;;;;;;6.60;2.30;;;;;;;;;;4958701;28;94555;-78
2023/04/01 05:52:48;;;;;;;5.68;1.95;;;;;;;;;;4958763;28;92143;-80
2023/04/01 05:55:14;;;;;;;5.97;2.13;;;;;;;;;;4957219;28;95357;-80
2023/04/01 05:57:41;;;;;;;4.57;1.77;;;;;;;;;;4958486;28;92695;-78
2023/04/01 06:00:08;;;;;;;4.65;1.90;;;;;;;;;;4959182;28;92531;-80
2023/04/01 06:02:38;;;;;;;4.43;2.03;;;;;;;;;;4960206;28;92267;-79
2023/04/01 06:06:58;;;;;;;4.07;2.05;;;;;;;;;;5009547;27;1309652;-76
2023/04/01 06:09:27;;;;;;;4.30;1.95;;;;;;;;;;5014576;28;86372;-78
2023/04/01 06:12:10;;;;;;;3.53;1.88;;;;;;;;;;5007227;28;88515;-79
2023/04/01 06:15:10;;;;;;;3.28;1.85;;;;;;;;;;5015662;28;89257;-78
2023/04/01 06:17:43;;;;;;;4.40;2.17;;;;;;;;;;5006028;28;93983;-78
2023/04/01 06:20:22;;;;;;;4.25;2.00;;;;;;;;;;5042271;27;88547;-79
2023/04/01 06:23:09;;;;;;;3.70;1.75;;;;;;;;;;5045066;27;89287;-77
2023/04/01 06:25:55;;;;;;;5.15;2.10;;;;;;;;;;5030333;28;91114;-78
2023/04/01 06:28:28;;;;;;;3.95;2.00;;;;;;;;;;5037961;28;87044;-78
2023/04/01 06:31:05;;;;;;;4.13;2.05;;;;;;;;;;5045729;27;90134;-78
2023/04/01 06:33:52;;;;;;;4.05;2.00;;;;;;;;;;5050308;27;93888;-78
2023/04/01 06:36:38;;;;;;;4.22;2.05;;;;;;;;;;5052670;27;88891;-79
2023/04/01 06:39:22;;;;;;;5.78;2.00;;;;;;;;;;5023088;28;89862;-76
2023/04/01 06:42:01;;;;;;;4.45;1.90;;;;;;;;;;5014040;28;86717;-78
2023/04/01 06:44:30;;;;;;;4.70;2.00;;;;;;;;;;5027021;28;88933;-78
2023/04/01 06:47:23;;;;;;;3.30;1.90;;;;;;;;;;5019027;28;86433;-78
2023/04/01 06:50:21;;;;;;;3.60;1.70;;;;;;;;;;5001161;27;86699;-79
2023/04/01 06:53:30;;;;;;;3.13;1.80;;;;;;;;;;5034088;27;86222;-78
2023/04/01 06:56:18;;;;;;;7.80;1.40;;;;;;;;;;5035238;27;86868;-78
2023/04/01 06:59:01;;;;;;;1.33;0.70;;;;;;;;;;5048789;27;89154;-77
2023/04/01 07:01:39;;;;;;;1.17;0.55;;;;;;;;;;5049012;27;87453;-78
2023/04/01 07:04:11;;;;;;;1.67;0.73;;;;;;;;;;5050240;27;87094;-78
2023/04/01 07:06:41;;;;;;;1.75;0.50;;;;;;;;;;5051164;27;89071;-78
2023/04/01 07:09:18;;;;;;;0.90;0.60;;;;;;;;;;5034767;27;89272;-78
2023/04/01 07:12:18;;;;;;;2.17;0.60;;;;;;;;;;5058294;27;86472;-77
2023/04/01 07:15:26;;;;;;;2.53;0.40;;;;;;;;;;4961552;28;86798;-79
2023/04/01 07:17:55;;;;;;;2.35;0.65;;;;;;;;;;4931235;28;89430;-78
2023/04/01 07:20:40;;;;;;;1.15;0.60;;;;;;;;;;4962636;28;89071;-78
2023/04/01 07:23:11;;;;;;;1.98;0.40;;;;;;;;;;5012455;28;87132;-78
2023/04/01 07:25:59;;;;;;;2.35;0.60;;;;;;;;;;5018389;28;88761;-79
2023/04/01 07:28:51;;;;;;;2.50;1.02;;;;;;;;;;4996441;28;87039;-78
2023/04/01 07:31:42;;;;;;;0.63;0.60;;;;;;;;;;5049248;27;93357;-78
2023/04/01 07:34:13;;;;;;;1.20;0.60;;;;;;;;;;5039017;28;89528;-77
2023/04/01 07:37:01;;;;;;;0.50;0.50;;;;;;;;;;5034123;27;87048;-76
2023/04/01 07:39:31;;;;;;;1.63;0.63;;;;;;;;;;5033317;28;88607;-76
2023/04/01 07:42:13;;;;;;;;;;;;;;;;;;5005061;28;89059;-77
2023/04/01 07:44:46;;;;;;;1.38;0.57;;;;;;;;;;5017898;28;89199;-77
2023/04/01 07:47:21;;;;;;;1.73;0.60;;;;;;;;;;5007359;28;88232;-77
2023/04/01 07:50:06;;;;;;;0.63;0.50;;;;;;;;;;5021916;28;86828;-77
2023/04/01 07:52:48;;;;;;;1.30;0.60;;;;;;;;;;5040731;28;89733;-77
2023/04/01 07:55:31;;;;;;;1.00;0.50;;;;;;;;;;5020731;28;89147;-77
2023/04/01 07:58:18;;;;;;;0.95;0.50;;;;;;;;;;5021053;28;86798;-78
2023/04/01 08:00:51;;;;;;;1.20;0.50;;;;;;;;;;5034817;27;86953;-78
2023/04/01 08:03:34;;;;;;;2.58;0.57;;;;;;;;;;5023129;28;89234;-77
2023/04/01 08:06:07;;;;;;;0.98;0.50;;;;;;;;;;5020185;28;89049;-79
2023/04/01 08:08:33;;;;;;;3.60;0.60;;;;;;;;;;5018182;28;86970;-78
2023/04/01 08:11:38;;;;;;;1.42;0.57;;;;;;;;;;4995375;28;86639;-78
2023/04/01 08:14:42;;;;;;;1.63;0.60;;;;;;;;;;5010515;28;86586;-78
2023/04/01 08:17:27;;;;;;;2.13;0.50;;;;;;;;;;5043068;27;86917;-78
2023/04/01 08:20:11;;;;;;;1.92;0.70;;;;;;;;;;5018495;28;89328;-78
2023/04/01 08:22:40;;;;;;;2.25;0.60;;;;;;;;;;5019788;28;89831;-77
2023/04/01 08:25:22;;;;;;;3.03;0.68;;;;;;;;;;5018730;28;88782;-78
2023/04/01 08:27:51;;;;;;;2.33;0.60;;;;;;;;;;5039017;27;86760;-78
2023/04/01 08:30:19;;;;;;;1.50;0.57;;;;;;;;;;5024762;27;86939;-78
2023/04/01 08:32:52;;;;;;;1.50;0.52;;;;;;;;;;5025220;27;88486;-77
2023/04/01 08:35:40;;;;;;;0.73;0.47;;;;;;;;;;5021063;28;89158;-78
2023/04/01 08:38:12;;;;;;;0.63;0.63;;;;;;;;;;5022132;28;88333;-78
2023/04/01 08:40:54;;;;;;;1.23;0.40;;;;;;;;;;5022464;28;89823;-78
2023/04/01 08:43:40;;;;;;;0.68;0.60;;;;;;;;;;5014297;27;89075;-78
2023/04/01 08:46:12;;;;;;;0.68;0.57;;;;;;;;;;5036879;28;88720;-78
2023/04/01 08:48:42;;;;;;;1.13;0.70;;;;;;;;;;5022195;28;89401;-78
2023/04/01 08:51:33;;;;;;;0.80;0.50;;;;;;;;;;5024154;27;89308;-78
2023/04/01 08:54:05;;;;;;;1.17;0.60;;;;;;;;;;5033865;27;89161;-78
2023/04/01 08:56:57;;;;;;;0.90;0.60;;;;;;;;;;4997089;28;87252;-78
2023/04/01 08:59:28;;;;;;;2.05;0.47;;;;;;;;;;5007040;27;88698;-78
2023/04/01 09:02:12;;;;;;;0.88;0.60;;;;;;;;;;5026543;27;87688;-78
2023/04/01 09:05:03;;;;;;;1.30;0.70;;;;;;;;;;5016230;28;88206;-78
2023/04/01 09:07:42;;;;;;;0.73;0.57;;;;;;;;;;5019060;28;90908;-78
2023/04/01 09:10:16;;;;;;;0.70;0.70;;;;;;;;;;5027256;28;87100;-77
2023/04/01 09:12:57;;;;;;;1.00;0.60;;;;;;;;;;5037816;28;89258;-78
2023/04/01 09:15:30;;;;;;;0.90;0.60;;;;;;;;;;5040714;27;89216;-77
2023/04/01 09:18:16;;;;;;;1.05;0.63;;;;;;;;;;5039133;28;88687;-79
2023/04/01 09:21:08;;;;;;;0.65;0.52;;;;;;;;;;5022600;27;88275;-78
2023/04/01 09:23:38;;;;;;;0.57;0.45;;;;;;;;;;5019981;28;92060;-78
2023/04/01 09:26:16;;;;;;;1.85;0.60;;;;;;;;;;5023460;28;86995;-79
2023/04/01 09:28:46;;;;;;;1.17;0.50;;;;;;;;;;5006876;28;86614;-77
2023/04/01 09:31:15;;;;;;;0.50;0.50;;;;;;;;;;5033067;27;89591;-78
2023/04/01 09:34:08;;;;;;;1.92;0.75;;;;;;;;;;5042358;28;88266;-79
2023/04/01 09:37:09;;;;;;;0.85;0.60;;;;;;;;;;5041431;28;86775;-78
2023/04/01 09:39:46;;;;;;;1.33;0.68;;;;;;;;;;5039763;28;91146;-77
2023/04/01 09:42:15;;;;;;;;;;;;;;;;;;5026413;28;86641;-77
2023/04/01 09:44:57;;;;;;;0.50;0.50;;;;;;;;;;5040810;28;87469;-78
2023/04/01 09:47:27;;;;;;;0.90;0.50;;;;;;;;;;5041765;27;86404;-78
2023/04/01 09:49:55;;;;;;;0.73;0.65;;;;;;;;;;5016556;28;88587;-78
2023/04/01 09:52:37;;;;;;;1.10;0.50;;;;;;;;;;5024978;28;89104;-77
2023/04/01 09:55:21;;;;;;;0.73;0.50;;;;;;;;;;5026024;27;88158;-78
2023/04/01 09:58:02;;;;;;;0.85;0.52;;;;;;;;;;5026764;28;88813;-77
2023/04/01 10:01:12;;;;;;;0.73;0.70;;;;;;;;;;5013966;28;86499;-78
2023/04/01 10:03:57;;;;;;;0.77;0.60;;;;;;;;;;4974052;28;92090;-79
2023/04/01 10:06:42;;;;;;;0.80;0.68;;;;;;;;;;5015407;28;86987;-78
2023/04/01 10:09:12;;;;;;;0.60;0.60;;;;;;;;;;5010794;27;89197;-77
2023/04/01 10:11:53;;;;;;;0.90;0.57;;;;;;;;;;5020259;28;88869;-78
2023/04/01 10:14:39;;;;;;;0.80;0.80;;;;;;;;;;5011058;28;89100;-77
2023/04/01 10:17:15;;;;;;;0.82;0.70;;;;;;;;;;5021199;28;87622;-78
2023/04/01 10:20:02;;;;;;;0.60;0.60;;;;;;;;;;5022405;28;88894;-78
2023/04/01 10:22:49;;;;;;;2.63;0.75;;;;;;;;;;5013107;28;87642;-77
2023/04/01 10:25:25;;;;;;;4.03;0.70;;;;;;;;;;5036055;27;87511;-77
2023/04/01 10:28:20;;;;;;;5.13;0.70;;;;;;;;;;5041847;27;87196;-77
2023/04/01 10:31:11;;;;;;;2.88;0.57;;;;;;;;;;5014979;27;86545;-77
2023/04/01 10:33:51;;;;;;;1.60;0.80;;;;;;;;;;5002354;28;88906;-77
2023/04/01 10:36:27;;;;;;;2.38;0.73;;;;;;;;;;5018259;28;89376;-77
2023/04/01 10:38:53;;;;;;;3.58;0.85;;;;;;;;;;5024972;28;89243;-77
2023/04/01 10:41:24;;;;;;;1.20;0.60;;;;;;;;;;4995877;27;89689;-77
2023/04/01 10:44:26;;;;;;;2.58;0.77;;;;;;;;;;4999000;28;88658;-78
2023/04/01 10:47:11;;;;;;;3.35;0.70;;;;;;;;;;5015277;28;88453;-78
2023/04/01 10:50:07;;;;;;;1.23;0.50;;;;;;;;;;4999699;28;94706;-78
2023/04/01 10:52:46;;;;;;;2.40;0.85;;;;;;;;;;4980188;28;87866;-78
2023/04/01 10:55:48;;;;;;;3.60;0.70;;;;;;;;;;5021952;27;91982;-78
2023/04/01 10:58:40;;;;;;;1.95;0.75;;;;;;;;;;5031663;28;88009;-78
2023/04/01 11:01:40;;;;;;;13.13;2.90;;;;;;;;;;5022201;27;87980;-79
2023/04/01 11:04:25;;;;;;;17.50;3.28;;;;;;;;;;5022506;27;88150;-78
2023/04/01 11:07:25;;;;;;;8.55;2.72;;;;;;;;;;5017380;27;87861;-78
2023/04/01 11:10:11;;;;;;;11.05;3.00;;;;;;;;;;5020225;28;89774;-78
2023/04/01 11:13:04;;;;;;;10.00;3.13;;;;;;;;;;5014550;28;90035;-79
2023/04/01 11:15:34;;;;;;;8.23;3.45;;;;;;;;;;5013647;28;96282;-79
2023/04/01 11:18:15;;;;;;;11.38;3.55;;;;;;;;;;5021516;27;89717;-79
2023/04/01 11:20:45;;;;;;;10.80;4.32;;;;;;;;;;5013987;28;90838;-79
2023/04/01 11:23:15;;;;;;;9.98;3.47;;;;;;;;;;5008785;28;89425;-78
2023/04/01 11:25:54;;;;;;;11.55;3.65;;;;;;;;;;5007546;28;90686;-79
2023/04/01 11:28:38;;;;;;;13.35;3.97;;;;;;;;;;5003913;28;88730;-77
2023/04/01 11:31:10;;;;;;;10.25;3.60;;;;;;;;;;5009396;28;89552;-78
2023/04/01 11:33:48;;;;;;;9.57;4.25;;;;;;;;;;5009154;28;89801;-77
2023/04/01 11:36:23;;;;;;;9.50;3.42;;;;;;;;;;4992086;28;90378;-78
2023/04/01 11:39:11;;;;;;;8.18;3.40;;;;;;;;;;5014192;28;89726;-78
2023/04/01 11:42:10;;;;;;;8.52;3.40;;;;;;;;;;4951304;28;93264;-77
2023/04/01 11:45:13;;;;;;;8.35;3.42;;;;;;;;;;4993439;28;88039;-77
2023/04/01 11:47:48;;;;;;;12.75;3.95;;;;;;;;;;4999779;28;94950;-77
2023/04/01 11:50:21;;;;;;;10.38;3.50;;;;;;;;;;5022456;27;88310;-77
2023/04/01 11:52:55;;;;;;;8.27;3.20;;;;;;;;;;5011405;28;88243;-77
2023/04/01 11:55:27;;;;;;;9.63;3.45;;;;;;;;;;5012025;28;88295;-77
2023/04/01 11:58:07;;;;;;;10.05;3.65;;;;;;;;;;5001756;28;90793;-76
2023/04/01 12:00:52;;;;;;;8.43;3.60;;;;;;;;;;5003424;28;87303;-78
2023/04/01 12:03:21;;;;;;;9.15;3.70;;;;;;;;;;5020798;28;90364;-78
2023/04/01 12:05:58;;;;;;;9.77;3.67;;;;;;;;;;5001283;28;87572;-79
2023/04/01 12:08:37;;;;;;;9.07;3.53;;;;;;;;;;5013948;28;88780;-79
2023/04/01 12:11:03;;;;;;;11.35;3.65;;;;;;;;;;5000395;28;87954;-78
2023/04/01 12:13:32;;;;;;;9.05;3.50;;;;;;;;;;5003210;28;92613;-78
2023/04/01 12:16:09;;;;;;;8.18;3.63;;;;;;;;;;5006375;28;88852;-79
2023/04/01 12:18:40;;;;;;;8.35;3.60;;;;;;;;;;5001403;28;89628;-78
2023/04/01 12:21:21;;;;;;;8.50;3.30;;;;;;;;;;5017711;28;87906;-79
2023/04/01 12:23:58;;;;;;;8.40;3.38;;;;;;;;;;4992409;28;88974;-79
2023/04/01 12:26:25;;;;;;;7.82;3.28;;;;;;;;;;4989062;28;88312;-79
2023/04/01 12:29:03;;;;;;;9.20;3.45;;;;;;;;;;5001424;28;87949;-80
2023/04/01 12:31:52;;;;;;;10.68;3.22;;;;;;;;;;5004223;28;93322;-78
2023/04/01 12:34:24;;;;;;;11.30;3.25;;;;;;;;;;5006394;28;89140;-76
2023/04/01 12:37:11;;;;;;;9.43;3.20;;;;;;;;;;5009277;28;88148;-79
2023/04/01 12:40:02;;;;;;;8.90;3.53;;;;;;;;;;4993687;28;92720;-78
2023/04/01 12:42:40;;;;;;;10.60;3.30;;;;;;;;;;4999294;28;89327;-78
2023/04/01 12:45:07;;;;;;;9.27;3.20;;;;;;;;;;4992832;28;88856;-78
2023/04/01 12:48:13;;;;;;;8.85;2.90;;;;;;;;;;5008561;28;88218;-77
2023/04/01 12:50:58;;;;;;;7.68;3.13;;;;;;;;;;4977593;28;88162;-77
2023/04/01 12:53:40;;;;;;;8.00;3.05;;;;;;;;;;4978799;28;87417;-78
2023/04/01 12:56:14;;;;;;;7.78;2.78;;;;;;;;;;5001115;28;88569;-78
2023/04/01 12:58:57;;;;;;;8.52;2.92;;;;;;;;;;5013467;28;90880;-77
2023/04/01 13:01:24;;;;;;;15.85;2.60;;;;;;;;;;5004134;28;90634;-78
2023/04/01 13:03:51;;;;;;;6.88;2.65;;;;;;;;;;5007549;28;90437;-77
2023/04/01 13:06:37;;;;;;;6.75;2.55;;;;;;;;;;4999344;28;88247;-77
2023/04/01 13:09:07;;;;;;;9.20;3.03;;;;;;;;;;4995355;28;90841;-77
2023/04/01 13:11:46;;;;;;;6.90;2.70;;;;;;;;;;5004098;28;88651;-77
2023/04/01 13:14:25;;;;;;;6.57;2.88;;;;;;;;;;5001366;28;88685;-76
2023/04/01 13:17:12;;;;;;;7.50;2.65;;;;;;;;;;4996642;28;88181;-78
2023/04/01 13:19:49;;;;;;;6.03;2.60;;;;;;;;;;5007209;28;92667;-78
2023/04/01 13:22:53;;;;;;;7.68;2.88;;;;;;;;;;5010371;28;88192;-78
2023/04/01 13:25:26;;;;;;;7.57;2.58;;;;;;;;;;5008232;28;88093;-77
2023/04/01 13:28:12;;;;;;;8.15;2.95;;;;;;;;;;5009842;28;88737;-77
2023/04/01 13:30:41;;;;;;;6.10;2.63;;;;;;;;;;5008320;28;90398;-77
2023/04/01 13:33:07;;;;;;;7.07;2.65;;;;;;;;;;5014954;27;87790;-78
2023/04/01 13:35:48;;;;;;;5.93;2.40;;;;;;;;;;5009997;28;87900;-78
2023/04/01 13:38:15;;;;;;;7.45;2.50;;;;;;;;;;5012407;28;88295;-81
2023/04/01 13:40:52;;;;;;;5.85;2.60;;;;;;;;;;5001242;28;89649;-77
2023/04/01 13:43:31;;;;;;;7.45;2.63;;;;;;;;;;5010611;28;90350;-78
2023/04/01 13:46:03;;;;;;;5.70;2.35;;;;;;;;;;5015221;27;87301;-78
2023/04/01 13:48:35;;;;;;;7.40;2.65;;;;;;;;;;5014276;28;87956;-79
2023/04/01 13:51:20;;;;;;;6.47;2.70;;;;;;;;;;5008053;28;88192;-78
2023/04/01 13:54:06;;;;;;;6.75;2.45;;;;;;;;;;5015688;28;91147;-78
2023/04/01 13:56:51;;;;;;;7.57;2.58;;;;;;;;;;5015568;27;89232;-78
2023/04/01 13:59:34;;;;;;;6.22;2.50;;;;;;;;;;5026597;27;88266;-77
2023/04/01 14:02:14;;;;;;;6.20;2.63;;;;;;;;;;5021265;27;88537;-76
2023/04/01 14:04:40;;;;;;;;;;;;;;;;;;5028460;27;88286;-78
2023/04/01 14:07:10;;;;;;;6.22;2.25;;;;;;;;;;5030106;27;89270;-78
2023/04/01 14:09:42;;;;;;;6.88;2.33;;;;;;;;;;5003151;28;88057;-77
2023/04/01 14:12:16;;;;;;;5.75;2.20;;;;;;;;;;5030582;27;87309;-77
2023/04/01 14:14:42;;;;;;;7.25;2.20;;;;;;;;;;5034037;27;87795;-78
2023/04/01 14:17:30;;;;;;;5.55;2.10;;;;;;;;;;5016438;27;88577;-79
2023/04/01 14:20:05;;;;;;;5.38;2.10;;;;;;;;;;5014249;27;89080;-78
2023/04/01 14:22:41;;;;;;;6.38;2.05;;;;;;;;;;5023515;28;89920;-78
2023/04/01 14:25:07;;;;;;;4.63;1.90;;;;;;;;;;5023581;27;88315;-77
2023/04/01 14:27:40;;;;;;;4.35;2.00;;;;;;;;;;5016427;28;88179;-78
2023/04/01 14:30:06;;;;;;;6.07;2.00;;;;;;;;;;5032009;27;88412;-78
2023/04/01 14:32:39;;;;;;;5.05;2.05;;;;;;;;;;5015584;28;87936;-79
2023/04/01 14:35:13;;;;;;;4.57;1.83;;;;;;;;;;5028099;27;88207;-79
2023/04/01 14:37:39;;;;;;;4.63;2.03;;;;;;;;;;5031392;27;90137;-78
2023/04/01 14:40:17;;;;;;;3.53;1.70;;;;;;;;;;5022938;28;88619;-78
2023/04/01 14:42:56;;;;;;;4.32;1.70;;;;;;;;;;5040497;28;88908;-78
2023/04/01 14:45:41;;;;;;;4.28;1.80;;;;;;;;;;5034904;27;88963;-78
2023/04/01 14:48:22;;;;;;;4.80;1.90;;;;;;;;;;5015874;28;87652;-78
2023/04/01 14:50:50;;;;;;;5.25;2.33;;;;;;;;;;5037042;27;88077;-77
2023/04/01 14:53:20;;;;;;;4.78;1.83;;;;;;;;;;5039659;27;88611;-77
2023/04/01 14:55:51;;;;;;;4.03;1.70;;;;;;;;;;5044311;27;87785;-78
2023/04/01 14:58:18;;;;;;;3.15;1.73;;;;;;;;;;5044320;27;87910;-78
2023/04/01 15:00:54;;;;;;;3.35;1.50;;;;;;;;;;5036238;27;88690;-79
2023/04/01 15:03:32;;;;;;;3.92;1.70;;;;;;;;;;5038764;27;88543;-78
2023/04/01 15:05:58;;;;;;;3.72;1.70;;;;;;;;;;5037999;27;88115;-78
2023/04/01 15:08:37;;;;;;;4.43;1.80;;;;;;;;;;5025962;28;88909;-78
2023/04/01 15:11:05;;;;;;;4.35;1.52;;;;;;;;;;5043411;27;88994;-77
2023/04/01 15:13:31;;;;;;;;;;;;;;;;;;5045438;27;88619;-78
2023/04/01 15:16:19;;;;;;;2.95;1.63;;;;;;;;;;5045128;27;107676;-77
2023/04/01 15:19:14;;;;;;;3.92;1.52;;;;;;;;;;5044971;27;88334;-77
2023/04/01 15:21:41;;;;;;;3.40;1.60;;;;;;;;;;4994377;28;92715;-77
2023/04/01 15:24:14;;;;;;;3.30;1.55;;;;;;;;;;5004219;28;88012;-77
2023/04/01 15:26:59;;;;;;;5.38;1.90;;;;;;;;;;5004290;28;89090;-78
2023/04/01 15:29:26;;;;;;;5.75;1.50;;;;;;;;;;5023867;28;88593;-78
2023/04/01 15:31:57;;;;;;;3.08;1.60;;;;;;;;;;5003966;28;87762;-81